Time;durP1;ratioP1;P1;durP2;ratioP2;P2;SDS_P1;SDS_P2;PMS_P1;PMS_P2;Temp;Humidity;BMP_temperature;BMP_pressure;BME280_temperature;BME280_humidity;BME280_pressure;Samples;Min_cycle;Max_cycle;Signal;HPM_P1;HPM_P2
2022/11/06 00:00:57;;;;;;;98.25;55.58;;;;;;;;;;4918908;29;20048;-68
2022/11/06 00:03:24;;;;;;;92.50;52.92;;;;;;;;;;4918876;29;20079;-68
2022/11/06 00:08:39;;;;;;;93.90;53.97;;;;;;;;;;4918710;29;20040;-68
2022/11/06 00:11:10;;;;;;;96.38;53.22;;;;;;;;;;4918642;29;20095;-69
2022/11/06 00:13:38;;;;;;;97.68;55.15;;;;;;;;;;4917479;29;20507;-69
2022/11/06 00:16:06;;;;;;;100.03;55.13;;;;;;;;;;4918468;29;20043;-70
2022/11/06 00:18:34;;;;;;;97.50;54.97;;;;;;;;;;4918380;29;20067;-69
2022/11/06 00:21:08;;;;;;;96.70;54.13;;;;;;;;;;4918510;29;20404;-69
2022/11/06 00:23:36;;;;;;;100.23;52.87;;;;;;;;;;4918503;29;20048;-69
2022/11/06 00:26:10;;;;;;;101.45;57.00;;;;;;;;;;4918430;29;20148;-71
2022/11/06 00:28:38;;;;;;;97.10;58.58;;;;;;;;;;4918310;29;20040;-70
2022/11/06 00:31:07;;;;;;;90.32;51.70;;;;;;;;;;4918370;29;20087;-69
2022/11/06 00:33:34;;;;;;;87.60;52.58;;;;;;;;;;4918251;29;20043;-70
2022/11/06 00:36:02;;;;;;;98.20;54.05;;;;;;;;;;4918262;29;20470;-69
2022/11/06 00:38:30;;;;;;;100.53;56.72;;;;;;;;;;4917779;29;20068;-70
2022/11/06 00:41:02;;;;;;;93.22;54.78;;;;;;;;;;4918317;29;20048;-69
2022/11/06 00:43:30;;;;;;;101.85;57.25;;;;;;;;;;4918084;29;20050;-69
2022/11/06 00:46:01;;;;;;;107.15;60.20;;;;;;;;;;4918058;29;20131;-70
2022/11/06 00:48:29;;;;;;;96.38;54.10;;;;;;;;;;4918017;29;20462;-69
2022/11/06 00:51:01;;;;;;;102.45;63.17;;;;;;;;;;4917972;29;20044;-69
2022/11/06 00:53:29;;;;;;;101.35;56.45;;;;;;;;;;4917710;29;20045;-69
2022/11/06 00:56:03;;;;;;;105.05;59.38;;;;;;;;;;4916361;29;20140;-69
2022/11/06 00:58:30;;;;;;;110.80;61.33;;;;;;;;;;4917673;29;20043;-70
2022/11/06 01:01:05;;;;;;;101.30;58.42;;;;;;;;;;4918111;29;20123;-69
2022/11/06 01:03:32;;;;;;;103.72;61.35;;;;;;;;;;4917576;29;20075;-69
2022/11/06 01:06:04;;;;;;;104.90;59.17;;;;;;;;;;4917801;29;20142;-69
2022/11/06 01:08:31;;;;;;;102.38;59.75;;;;;;;;;;4917719;29;20484;-70
2022/11/06 01:10:59;;;;;;;107.03;57.67;;;;;;;;;;4917415;29;20045;-70
2022/11/06 01:13:26;;;;;;;106.22;62.20;;;;;;;;;;4917411;29;20052;-70
2022/11/06 01:15:54;;;;;;;102.32;59.17;;;;;;;;;;4917464;29;20059;-69
2022/11/06 01:18:21;;;;;;;111.05;61.35;;;;;;;;;;4917276;29;20050;-70
2022/11/06 01:20:48;;;;;;;108.85;63.10;;;;;;;;;;4917464;29;20573;-69
2022/11/06 01:23:16;;;;;;;104.82;59.13;;;;;;;;;;4917162;29;20082;-70
2022/11/06 01:25:43;;;;;;;118.35;61.42;;;;;;;;;;4917157;29;20044;-70
2022/11/06 01:28:10;;;;;;;105.28;61.35;;;;;;;;;;4917345;29;20123;-69
2022/11/06 01:30:38;;;;;;;111.85;62.03;;;;;;;;;;4917161;29;20074;-70
2022/11/06 01:33:06;;;;;;;111.68;62.28;;;;;;;;;;4917283;29;20123;-69
2022/11/06 01:35:33;;;;;;;116.38;63.40;;;;;;;;;;4917202;29;20046;-70
2022/11/06 01:38:00;;;;;;;113.07;63.50;;;;;;;;;;4917059;29;20151;-70
2022/11/06 01:40:28;;;;;;;109.00;61.08;;;;;;;;;;4916979;29;20059;-70
2022/11/06 01:42:55;;;;;;;117.55;65.20;;;;;;;;;;4917124;29;20044;-70
2022/11/06 01:45:25;;;;;;;114.78;62.45;;;;;;;;;;4917053;29;20110;-70
2022/11/06 01:47:52;;;;;;;110.18;62.38;;;;;;;;;;4916969;29;20060;-70
2022/11/06 01:50:20;;;;;;;114.70;63.42;;;;;;;;;;4916908;29;20447;-70
2022/11/06 01:52:48;;;;;;;119.65;66.28;;;;;;;;;;4916936;29;20079;-70
2022/11/06 01:55:28;;;;;;;115.90;64.97;;;;;;;;;;4916797;29;20047;-70
2022/11/06 01:57:57;;;;;;;116.60;62.53;;;;;;;;;;4916810;29;20412;-69
2022/11/06 02:00:25;;;;;;;113.88;61.55;;;;;;;;;;4916590;29;20134;-70
2022/11/06 02:02:53;;;;;;;107.47;58.70;;;;;;;;;;4916548;29;20059;-70
2022/11/06 02:05:20;;;;;;;110.13;64.40;;;;;;;;;;4916722;29;20083;-70
2022/11/06 02:07:48;;;;;;;117.13;64.07;;;;;;;;;;4916647;29;20108;-70
2022/11/06 02:10:15;;;;;;;112.97;60.03;;;;;;;;;;4916507;29;20058;-70
2022/11/06 02:13:02;;;;;;;110.90;58.35;;;;;;;;;;4916569;29;20044;-70
2022/11/06 02:15:47;;;;;;;106.93;61.47;;;;;;;;;;4916596;29;20048;-70
2022/11/06 02:18:34;;;;;;;119.90;65.13;;;;;;;;;;4916451;29;20095;-70
2022/11/06 02:21:08;;;;;;;109.22;58.10;;;;;;;;;;4916768;29;20066;-69
2022/11/06 02:23:54;;;;;;;111.35;60.95;;;;;;;;;;4916307;29;20096;-69
2022/11/06 02:26:23;;;;;;;115.10;63.65;;;;;;;;;;4916706;29;20048;-70
2022/11/06 02:28:53;;;;;;;119.78;64.28;;;;;;;;;;4916403;29;20036;-70
2022/11/06 02:31:24;;;;;;;114.68;63.95;;;;;;;;;;4916200;29;20058;-70
2022/11/06 02:33:57;;;;;;;103.57;61.25;;;;;;;;;;4916172;29;20041;-70
2022/11/06 02:36:29;;;;;;;109.97;63.25;;;;;;;;;;4917079;29;20040;-70
2022/11/06 02:38:59;;;;;;;110.78;60.30;;;;;;;;;;4922407;29;20040;-70
2022/11/06 02:41:31;;;;;;;111.22;62.88;;;;;;;;;;4922718;29;20072;-70
2022/11/06 02:43:59;;;;;;;107.35;60.53;;;;;;;;;;4922888;29;20055;-70
2022/11/06 02:46:32;;;;;;;113.82;58.95;;;;;;;;;;4922767;29;20122;-70
2022/11/06 02:49:05;;;;;;;106.53;61.22;;;;;;;;;;4922343;29;20075;-70
2022/11/06 02:51:35;;;;;;;113.75;64.03;;;;;;;;;;4922386;29;20123;-70
2022/11/06 02:54:05;;;;;;;108.47;60.28;;;;;;;;;;4921332;29;20048;-71
2022/11/06 02:56:38;;;;;;;110.80;60.83;;;;;;;;;;4922511;29;20123;-70
2022/11/06 02:59:09;;;;;;;108.72;61.67;;;;;;;;;;4922425;29;20048;-70
2022/11/06 03:01:39;;;;;;;108.45;60.22;;;;;;;;;;4922122;29;20123;-70
2022/11/06 03:04:11;;;;;;;116.90;63.22;;;;;;;;;;4922354;29;20538;-70
2022/11/06 03:06:42;;;;;;;117.82;63.78;;;;;;;;;;4922553;29;20055;-70
2022/11/06 03:09:11;;;;;;;107.22;61.75;;;;;;;;;;4921377;29;20079;-70
2022/11/06 03:11:39;;;;;;;113.72;61.03;;;;;;;;;;4922114;29;20051;-70
2022/11/06 03:14:15;;;;;;;115.82;62.55;;;;;;;;;;4921208;29;20127;-70
2022/11/06 03:16:46;;;;;;;105.00;60.60;;;;;;;;;;4922248;29;20143;-70
2022/11/06 03:19:28;;;;;;;113.63;60.00;;;;;;;;;;4922074;29;20047;-70
2022/11/06 03:22:12;;;;;;;108.95;59.83;;;;;;;;;;4922133;29;20075;-70
2022/11/06 03:24:39;;;;;;;115.85;63.05;;;;;;;;;;4922220;29;20530;-70
2022/11/06 03:27:14;;;;;;;107.97;57.00;;;;;;;;;;4922216;29;20044;-70
2022/11/06 03:30:02;;;;;;;108.47;56.97;;;;;;;;;;4921288;29;20513;-70
2022/11/06 03:32:42;;;;;;;115.35;61.85;;;;;;;;;;4922098;29;20056;-71
2022/11/06 03:35:15;;;;;;;108.03;58.55;;;;;;;;;;4922106;29;20050;-70
2022/11/06 03:37:47;;;;;;;112.10;59.53;;;;;;;;;;4921946;29;20625;-70
2022/11/06 03:40:16;;;;;;;115.72;63.67;;;;;;;;;;4921932;29;20687;-70
2022/11/06 03:42:45;;;;;;;115.68;62.63;;;;;;;;;;4922123;29;20098;-70
2022/11/06 03:45:18;;;;;;;116.47;65.50;;;;;;;;;;4922011;29;20075;-70
2022/11/06 03:47:57;;;;;;;120.78;65.05;;;;;;;;;;4921310;29;20063;-70
2022/11/06 03:50:29;;;;;;;112.70;61.65;;;;;;;;;;4918712;29;20050;-70
2022/11/06 03:53:04;;;;;;;111.47;61.92;;;;;;;;;;4919148;29;20048;-70
2022/11/06 03:55:34;;;;;;;124.67;66.40;;;;;;;;;;4919040;29;20047;-70
2022/11/06 03:58:05;;;;;;;112.90;59.60;;;;;;;;;;4919130;29;20052;-70
2022/11/06 04:00:35;;;;;;;112.82;59.63;;;;;;;;;;4918921;29;20048;-70
2022/11/06 04:03:06;;;;;;;111.40;59.63;;;;;;;;;;4918958;29;20427;-70
2022/11/06 04:05:41;;;;;;;110.63;59.67;;;;;;;;;;4918865;29;20125;-70
2022/11/06 04:13:56;;;;;;;107.53;60.50;;;;;;;;;;4918607;29;20050;-71
2022/11/06 04:16:43;;;;;;;107.75;57.15;;;;;;;;;;4918637;29;20052;-70
2022/11/06 04:19:16;;;;;;;106.03;57.60;;;;;;;;;;4918302;29;20096;-70
2022/11/06 04:22:01;;;;;;;112.55;59.67;;;;;;;;;;4918527;29;20055;-70
2022/11/06 04:27:21;;;;;;;105.68;59.97;;;;;;;;;;4918591;29;20048;-70
2022/11/06 04:29:52;;;;;;;105.50;56.38;;;;;;;;;;4918335;29;20500;-70
2022/11/06 04:32:19;;;;;;;109.97;59.40;;;;;;;;;;4918277;29;20055;-70
2022/11/06 04:34:58;;;;;;;104.40;57.97;;;;;;;;;;4932891;29;20127;-69
2022/11/06 04:37:32;;;;;;;106.45;57.47;;;;;;;;;;4918035;29;20058;-70
2022/11/06 04:40:11;;;;;;;101.95;57.78;;;;;;;;;;4916862;29;20575;-70
2022/11/06 04:42:57;;;;;;;110.32;56.60;;;;;;;;;;4918173;29;20115;-69
2022/11/06 04:45:24;;;;;;;;;;;;;;;;;;4917240;29;20408;-70
2022/11/06 04:47:53;;;;;;;108.18;53.70;;;;;;;;;;4918047;29;20014;-70
2022/11/06 04:50:22;;;;;;;102.75;56.15;;;;;;;;;;4917983;29;20048;-70
2022/11/06 04:52:51;;;;;;;111.78;59.58;;;;;;;;;;4916916;29;20080;-70
2022/11/06 04:55:20;;;;;;;114.80;59.70;;;;;;;;;;4917926;29;20119;-70
2022/11/06 04:57:47;;;;;;;106.80;56.63;;;;;;;;;;4917950;29;20079;-70
2022/11/06 05:00:16;;;;;;;100.90;56.53;;;;;;;;;;4917203;29;20055;-70
2022/11/06 05:02:43;;;;;;;111.40;58.03;;;;;;;;;;4917676;29;20059;-70
2022/11/06 05:05:11;;;;;;;107.78;56.53;;;;;;;;;;4917946;29;20055;-70
2022/11/06 05:07:38;;;;;;;104.78;53.97;;;;;;;;;;4917785;29;20123;-70
2022/11/06 05:10:05;;;;;;;106.45;56.13;;;;;;;;;;4917579;29;20052;-70
2022/11/06 05:12:33;;;;;;;106.93;56.60;;;;;;;;;;4917677;29;20562;-71
2022/11/06 05:15:00;;;;;;;101.90;54.97;;;;;;;;;;4917373;29;20506;-70
2022/11/06 05:17:28;;;;;;;101.72;54.15;;;;;;;;;;4917551;29;20435;-71
2022/11/06 05:20:02;;;;;;;100.55;52.08;;;;;;;;;;4917333;29;20052;-70
2022/11/06 05:25:15;;;;;;;95.82;53.05;;;;;;;;;;4917085;29;20048;-70
2022/11/06 05:27:43;;;;;;;101.30;51.88;;;;;;;;;;4917277;29;20123;-70
2022/11/06 05:30:10;;;;;;;97.53;52.78;;;;;;;;;;4917249;29;20051;-70
2022/11/06 05:32:38;;;;;;;97.10;52.90;;;;;;;;;;4917258;29;20080;-70
2022/11/06 05:35:05;;;;;;;99.38;51.55;;;;;;;;;;4917255;29;20036;-72
2022/11/06 05:37:33;;;;;;;96.85;51.42;;;;;;;;;;4916761;29;20515;-71
2022/11/06 05:40:00;;;;;;;91.82;49.45;;;;;;;;;;4917116;29;20044;-70
2022/11/06 05:42:28;;;;;;;89.18;45.13;;;;;;;;;;4917090;29;20462;-70
2022/11/06 05:44:55;;;;;;;84.28;48.67;;;;;;;;;;4917001;29;20050;-71
2022/11/06 05:47:22;;;;;;;83.40;47.22;;;;;;;;;;4916872;29;20122;-70
2022/11/06 05:49:50;;;;;;;86.72;46.22;;;;;;;;;;4917092;29;20070;-70
2022/11/06 05:52:17;;;;;;;89.28;48.58;;;;;;;;;;4916877;29;20099;-72
2022/11/06 05:54:45;;;;;;;82.72;46.13;;;;;;;;;;4916644;29;20051;-72
2022/11/06 05:57:12;;;;;;;88.13;46.60;;;;;;;;;;4917144;29;20469;-71
2022/11/06 05:59:40;;;;;;;82.40;45.10;;;;;;;;;;4916709;29;20123;-71
2022/11/06 06:02:08;;;;;;;79.72;44.08;;;;;;;;;;4916793;29;20123;-72
2022/11/06 06:04:35;;;;;;;87.25;45.10;;;;;;;;;;4916379;29;20072;-74
2022/11/06 06:07:03;;;;;;;80.68;46.10;;;;;;;;;;4916750;29;20052;-73
2022/11/06 06:09:30;;;;;;;81.25;46.15;;;;;;;;;;4915853;29;20052;-73
2022/11/06 06:11:58;;;;;;;84.25;45.63;;;;;;;;;;4915267;29;20076;-74
2022/11/06 06:14:25;;;;;;;76.22;44.15;;;;;;;;;;4916031;29;20539;-74
2022/11/06 06:16:52;;;;;;;78.13;43.60;;;;;;;;;;4916386;29;20043;-74
2022/11/06 06:19:20;;;;;;;79.63;43.50;;;;;;;;;;4916234;29;20099;-73
2022/11/06 06:21:48;;;;;;;78.80;41.13;;;;;;;;;;4916421;29;20233;-73
2022/11/06 06:24:16;;;;;;;77.53;42.13;;;;;;;;;;4916314;29;20054;-74
2022/11/06 06:26:43;;;;;;;73.65;41.03;;;;;;;;;;4914494;29;20072;-74
2022/11/06 06:29:11;;;;;;;65.97;39.78;;;;;;;;;;4914657;29;20067;-73
2022/11/06 06:31:38;;;;;;;65.65;39.10;;;;;;;;;;4914328;29;20040;-75
2022/11/06 06:34:05;;;;;;;71.07;40.38;;;;;;;;;;4914983;29;20051;-73
2022/11/06 06:36:33;;;;;;;67.25;39.20;;;;;;;;;;4915961;29;20135;-73
2022/11/06 06:39:00;;;;;;;68.13;39.40;;;;;;;;;;4915387;29;20044;-75
2022/11/06 06:41:28;;;;;;;66.90;39.85;;;;;;;;;;4914875;29;20040;-73
2022/11/06 06:43:55;;;;;;;65.22;38.90;;;;;;;;;;4916200;29;20055;-76
2022/11/06 06:46:22;;;;;;;70.32;38.00;;;;;;;;;;4916062;29;20518;-69
2022/11/06 06:48:50;;;;;;;63.13;37.10;;;;;;;;;;4915861;29;20052;-75
2022/11/06 06:51:18;;;;;;;61.75;37.80;;;;;;;;;;4913782;29;20115;-76
2022/11/06 06:53:50;;;;;;;61.35;35.97;;;;;;;;;;4915905;29;20063;-75
2022/11/06 06:56:17;;;;;;;56.03;35.90;;;;;;;;;;4915705;29;20039;-75
2022/11/06 06:58:45;;;;;;;63.38;35.10;;;;;;;;;;4915619;29;20071;-76
2022/11/06 07:01:12;;;;;;;64.15;36.00;;;;;;;;;;4915723;29;20047;-75
2022/11/06 07:03:40;;;;;;;56.78;34.00;;;;;;;;;;4916059;29;20044;-76
2022/11/06 07:06:07;;;;;;;51.70;29.90;;;;;;;;;;4915954;29;20459;-75
2022/11/06 07:08:36;;;;;;;56.40;33.20;;;;;;;;;;4946179;29;20072;-75
2022/11/06 07:11:05;;;;;;;55.13;33.58;;;;;;;;;;4916095;29;20394;-74
2022/11/06 07:13:32;;;;;;;49.42;33.70;;;;;;;;;;4915979;29;20518;-73
2022/11/06 07:16:07;;;;;;;56.50;32.20;;;;;;;;;;4915663;29;20462;-76
2022/11/06 07:18:34;;;;;;;50.70;31.92;;;;;;;;;;4916062;29;20048;-73
2022/11/06 07:21:09;;;;;;;54.22;32.72;;;;;;;;;;4915629;29;20104;-75
2022/11/06 07:23:36;;;;;;;52.88;31.77;;;;;;;;;;4917696;29;20048;-76
2022/11/06 07:26:04;;;;;;;40.00;25.92;;;;;;;;;;4919580;29;20123;-73
2022/11/06 07:28:32;;;;;;;46.70;28.33;;;;;;;;;;4919372;29;20442;-74
2022/11/06 07:31:00;;;;;;;44.65;26.83;;;;;;;;;;4919315;29;20127;-72
2022/11/06 07:33:28;;;;;;;43.97;27.00;;;;;;;;;;4919416;29;20043;-73
2022/11/06 07:35:55;;;;;;;46.90;28.77;;;;;;;;;;4919356;29;20443;-76
2022/11/06 07:38:22;;;;;;;42.35;24.73;;;;;;;;;;4919360;29;20055;-79
2022/11/06 07:40:50;;;;;;;36.72;25.30;;;;;;;;;;4919172;29;20147;-76
2022/11/06 07:43:17;;;;;;;41.28;23.75;;;;;;;;;;4919141;29;20098;-76
2022/11/06 07:45:45;;;;;;;41.53;25.75;;;;;;;;;;4919055;29;20044;-74
2022/11/06 07:48:12;;;;;;;34.33;22.77;;;;;;;;;;4919130;29;20068;-75
2022/11/06 07:50:40;;;;;;;39.97;21.90;;;;;;;;;;4918938;29;20044;-74
2022/11/06 07:53:07;;;;;;;34.20;22.13;;;;;;;;;;4919063;29;20085;-74
2022/11/06 07:55:35;;;;;;;34.58;21.30;;;;;;;;;;4918854;29;20551;-73
2022/11/06 07:58:08;;;;;;;33.38;20.98;;;;;;;;;;4918980;29;20079;-73
2022/11/06 08:00:35;;;;;;;44.13;22.58;;;;;;;;;;4918837;29;20043;-73
2022/11/06 08:03:03;;;;;;;35.25;21.02;;;;;;;;;;4918666;29;20052;-72
2022/11/06 08:05:30;;;;;;;34.22;20.58;;;;;;;;;;4918761;29;20075;-72
2022/11/06 08:07:58;;;;;;;34.45;20.67;;;;;;;;;;4918412;29;20048;-72
2022/11/06 08:10:25;;;;;;;30.30;19.27;;;;;;;;;;4918662;29;20086;-71
2022/11/06 08:12:53;;;;;;;31.35;19.05;;;;;;;;;;4918600;29;20044;-71
2022/11/06 08:15:20;;;;;;;28.35;19.50;;;;;;;;;;4918443;29;20088;-72
2022/11/06 08:17:48;;;;;;;31.63;19.65;;;;;;;;;;4918416;29;20068;-71
2022/11/06 08:20:15;;;;;;;30.00;18.55;;;;;;;;;;4918382;29;20070;-70
2022/11/06 08:22:43;;;;;;;30.48;17.40;;;;;;;;;;4917431;29;20068;-73
2022/11/06 08:25:10;;;;;;;30.25;18.27;;;;;;;;;;4917176;29;20476;-73
2022/11/06 08:27:37;;;;;;;26.98;18.02;;;;;;;;;;4918280;29;20072;-72
2022/11/06 08:30:05;;;;;;;28.38;15.90;;;;;;;;;;4918291;29;20048;-74
2022/11/06 08:32:33;;;;;;;29.65;17.95;;;;;;;;;;4918436;29;20091;-75
2022/11/06 08:35:00;;;;;;;26.70;17.52;;;;;;;;;;4922839;29;20095;-72
2022/11/06 08:37:27;;;;;;;26.25;15.52;;;;;;;;;;4936990;29;20123;-73
2022/11/06 08:39:55;;;;;;;26.50;15.68;;;;;;;;;;4937182;29;20483;-74
2022/11/06 08:42:23;;;;;;;26.33;15.30;;;;;;;;;;4937352;29;20060;-74
2022/11/06 08:44:51;;;;;;;30.58;17.38;;;;;;;;;;4932995;29;20060;-73
2022/11/06 08:47:18;;;;;;;31.05;17.13;;;;;;;;;;4917620;29;20367;-74
2022/11/06 08:49:46;;;;;;;30.02;15.73;;;;;;;;;;4917281;29;20036;-73
2022/11/06 08:52:13;;;;;;;25.52;16.13;;;;;;;;;;4917478;29;20040;-72
2022/11/06 08:54:41;;;;;;;25.73;15.80;;;;;;;;;;4917462;29;20044;-73
2022/11/06 08:57:08;;;;;;;29.33;14.55;;;;;;;;;;4917707;29;20044;-76
2022/11/06 08:59:36;;;;;;;22.70;14.40;;;;;;;;;;4917664;29;20127;-76
2022/11/06 09:02:03;;;;;;;26.70;15.10;;;;;;;;;;4917905;29;20052;-77
2022/11/06 09:04:31;;;;;;;31.25;14.90;;;;;;;;;;4918139;29;20051;-75
2022/11/06 09:07:05;;;;;;;26.90;15.53;;;;;;;;;;4917992;29;20056;-76
2022/11/06 09:09:32;;;;;;;27.63;16.73;;;;;;;;;;4917649;29;20083;-79
2022/11/06 09:12:00;;;;;;;29.20;16.08;;;;;;;;;;4917774;29;20056;-77
2022/11/06 09:14:27;;;;;;;29.20;16.02;;;;;;;;;;4917912;29;20451;-77
2022/11/06 09:16:55;;;;;;;25.80;14.02;;;;;;;;;;4917707;29;20487;-76
2022/11/06 09:19:23;;;;;;;28.63;14.43;;;;;;;;;;4917583;29;20042;-77
2022/11/06 09:21:50;;;;;;;21.35;13.98;;;;;;;;;;4913714;29;20543;-73
2022/11/06 09:24:21;;;;;;;21.92;13.57;;;;;;;;;;4915487;29;20044;-73
2022/11/06 09:27:09;;;;;;;25.00;15.32;;;;;;;;;;4914884;29;20135;-78
2022/11/06 09:29:39;;;;;;;22.67;14.05;;;;;;;;;;4913931;29;20455;-73
2022/11/06 09:32:07;;;;;;;20.52;12.65;;;;;;;;;;4930248;29;20044;-76
2022/11/06 09:34:34;;;;;;;23.48;13.32;;;;;;;;;;4915255;29;20650;-75
2022/11/06 09:37:02;;;;;;;24.30;14.20;;;;;;;;;;4916880;29;20060;-75
2022/11/06 09:39:30;;;;;;;22.90;13.00;;;;;;;;;;4915473;29;20048;-77
2022/11/06 09:42:01;;;;;;;20.05;12.95;;;;;;;;;;4915542;29;20083;-74
2022/11/06 09:44:35;;;;;;;22.25;13.13;;;;;;;;;;4909424;29;20047;-74
2022/11/06 09:47:05;;;;;;;22.75;11.40;;;;;;;;;;4916849;29;20111;-74
2022/11/06 09:49:39;;;;;;;20.50;12.60;;;;;;;;;;4909706;29;20443;-74
2022/11/06 09:52:10;;;;;;;24.27;12.70;;;;;;;;;;4916581;29;20055;-73
2022/11/06 09:54:55;;;;;;;19.05;11.77;;;;;;;;;;4916549;29;20037;-77
2022/11/06 09:57:32;;;;;;;23.13;11.85;;;;;;;;;;4905713;29;20040;-74
2022/11/06 10:00:01;;;;;;;23.52;12.02;;;;;;;;;;4916393;29;20044;-76
2022/11/06 10:02:30;;;;;;;68.00;46.08;;;;;;;;;;4916402;29;20087;-73
2022/11/06 10:05:18;;;;;;;20.42;11.88;;;;;;;;;;4916467;29;20554;-75
2022/11/06 10:07:46;;;;;;;21.58;12.80;;;;;;;;;;4909794;29;20044;-78
2022/11/06 10:10:16;;;;;;;23.20;12.25;;;;;;;;;;4916492;29;20082;-76
2022/11/06 10:12:46;;;;;;;26.63;13.13;;;;;;;;;;4916397;29;20055;-77
2022/11/06 10:15:34;;;;;;;17.55;11.27;;;;;;;;;;4915928;29;20043;-77
2022/11/06 10:18:05;;;;;;;24.55;11.57;;;;;;;;;;4914519;29;20051;-75
2022/11/06 10:20:53;;;;;;;22.70;11.30;;;;;;;;;;4915621;29;20044;-75
2022/11/06 10:23:29;;;;;;;27.10;12.95;;;;;;;;;;4915715;29;20123;-74
2022/11/06 10:26:11;;;;;;;17.77;10.93;;;;;;;;;;4915498;29;20099;-75
2022/11/06 10:28:55;;;;;;;22.92;13.85;;;;;;;;;;4914165;29;20048;-75
2022/11/06 10:31:23;;;;;;;31.23;11.70;;;;;;;;;;4908955;29;20116;-78
2022/11/06 10:33:54;;;;;;;26.08;12.15;;;;;;;;;;4914344;29;20043;-77
2022/11/06 10:36:24;;;;;;;30.75;15.38;;;;;;;;;;4914633;29;20036;-76
2022/11/06 10:38:53;;;;;;;24.35;15.07;;;;;;;;;;4914411;29;20048;-76
2022/11/06 10:41:22;;;;;;;30.95;17.58;;;;;;;;;;4915174;29;20135;-77
2022/11/06 10:43:51;;;;;;;23.58;15.18;;;;;;;;;;4915655;29;20040;-77
2022/11/06 10:46:29;;;;;;;29.10;16.10;;;;;;;;;;4908771;29;20078;-75
2022/11/06 10:48:58;;;;;;;23.90;16.10;;;;;;;;;;4915462;29;20103;-75
2022/11/06 10:51:44;;;;;;;24.58;13.50;;;;;;;;;;4915031;29;20143;-76
2022/11/06 10:54:17;;;;;;;21.85;13.77;;;;;;;;;;4915129;29;20483;-76
2022/11/06 10:56:54;;;;;;;21.90;12.05;;;;;;;;;;4915045;29;20103;-79
2022/11/06 10:59:22;;;;;;;23.73;13.68;;;;;;;;;;4918934;29;20044;-77
2022/11/06 11:01:49;;;;;;;21.08;11.73;;;;;;;;;;4919446;29;20044;-73
2022/11/06 11:04:17;;;;;;;19.38;12.07;;;;;;;;;;4919741;29;20554;-74
2022/11/06 11:06:44;;;;;;;18.90;11.65;;;;;;;;;;4919379;29;20059;-78
2022/11/06 11:09:32;;;;;;;20.33;11.68;;;;;;;;;;4919538;29;20040;-74
2022/11/06 11:11:59;;;;;;;19.25;11.75;;;;;;;;;;4919381;29;21485;-78
2022/11/06 11:14:31;;;;;;;21.20;12.63;;;;;;;;;;4919484;29;20072;-73
2022/11/06 11:17:00;;;;;;;20.45;11.50;;;;;;;;;;4917930;29;20044;-74
2022/11/06 11:19:27;;;;;;;24.80;12.77;;;;;;;;;;4917708;29;20123;-72
2022/11/06 11:22:04;;;;;;;19.98;11.35;;;;;;;;;;4917497;29;20040;-76
2022/11/06 11:24:32;;;;;;;20.90;10.88;;;;;;;;;;4917488;29;20046;-76
2022/11/06 11:27:01;;;;;;;23.10;12.05;;;;;;;;;;4917663;29;20055;-75
2022/11/06 11:29:29;;;;;;;25.23;13.23;;;;;;;;;;4917782;29;20483;-75
2022/11/06 11:31:58;;;;;;;22.55;13.57;;;;;;;;;;4919413;29;20046;-73
2022/11/06 11:34:30;;;;;;;23.65;15.00;;;;;;;;;;4919130;29;20123;-77
2022/11/06 11:37:02;;;;;;;30.20;15.93;;;;;;;;;;4919019;29;20044;-74
2022/11/06 11:39:34;;;;;;;23.40;12.15;;;;;;;;;;4919043;29;20537;-74
2022/11/06 11:42:20;;;;;;;20.92;10.90;;;;;;;;;;4919030;29;20048;-76
2022/11/06 11:45:05;;;;;;;18.85;11.13;;;;;;;;;;4918997;29;20052;-76
2022/11/06 11:47:33;;;;;;;20.10;10.68;;;;;;;;;;4918943;29;20126;-77
2022/11/06 11:50:16;;;;;;;15.10;9.90;;;;;;;;;;4917681;29;20514;-76
2022/11/06 11:52:47;;;;;;;18.10;9.88;;;;;;;;;;4918712;29;20056;-76
2022/11/06 11:55:16;;;;;;;17.67;10.68;;;;;;;;;;4918704;29;20036;-76
2022/11/06 11:57:44;;;;;;;20.40;11.45;;;;;;;;;;4918750;29;20554;-77
2022/11/06 12:00:18;;;;;;;18.80;10.52;;;;;;;;;;4918549;29;20483;-77
2022/11/06 12:02:47;;;;;;;17.20;9.93;;;;;;;;;;4918549;29;20074;-77
2022/11/06 12:05:22;;;;;;;25.33;11.60;;;;;;;;;;4917604;29;20043;-74
2022/11/06 12:07:52;;;;;;;18.38;9.55;;;;;;;;;;4916778;29;20096;-74
2022/11/06 12:10:29;;;;;;;18.00;9.30;;;;;;;;;;4917073;29;20044;-75
2022/11/06 12:12:57;;;;;;;22.67;9.90;;;;;;;;;;4909104;29;20147;-75
2022/11/06 12:15:24;;;;;;;20.23;9.82;;;;;;;;;;4918369;29;20044;-76
2022/11/06 12:17:54;;;;;;;17.85;10.15;;;;;;;;;;4918245;29;20051;-76
2022/11/06 12:20:25;;;;;;;20.15;10.38;;;;;;;;;;4918237;29;20123;-78
2022/11/06 12:22:53;;;;;;;21.98;9.52;;;;;;;;;;4918315;29;20063;-76
2022/11/06 12:25:31;;;;;;;18.67;9.13;;;;;;;;;;4918394;29;20043;-76
2022/11/06 12:27:59;;;;;;;18.67;10.40;;;;;;;;;;4916893;29;20419;-75
2022/11/06 12:30:26;;;;;;;17.80;9.63;;;;;;;;;;4918267;29;20079;-75
2022/11/06 12:33:11;;;;;;;18.45;9.38;;;;;;;;;;4918013;29;20048;-76
2022/11/06 12:35:44;;;;;;;23.65;9.32;;;;;;;;;;4918117;29;20048;-76
2022/11/06 12:38:31;;;;;;;19.23;9.45;;;;;;;;;;4917820;29;20063;-77
2022/11/06 12:41:09;;;;;;;18.98;9.35;;;;;;;;;;4918131;29;20047;-76
2022/11/06 12:43:40;;;;;;;18.60;9.32;;;;;;;;;;4917360;29;20443;-76
2022/11/06 12:46:08;;;;;;;22.42;10.57;;;;;;;;;;4918031;29;20048;-75
2022/11/06 12:48:43;;;;;;;21.77;9.70;;;;;;;;;;4915606;29;20116;-77
2022/11/06 12:51:10;;;;;;;22.25;10.20;;;;;;;;;;4917589;29;20059;-71
2022/11/06 12:53:44;;;;;;;29.65;10.10;;;;;;;;;;4917440;29;20064;-74
2022/11/06 12:56:11;;;;;;;15.60;9.65;;;;;;;;;;4917536;29;20043;-75
2022/11/06 12:58:42;;;;;;;23.58;13.25;;;;;;;;;;4917582;29;20464;-74
2022/11/06 13:01:24;;;;;;;22.58;9.90;;;;;;;;;;4917782;29;20055;-77
2022/11/06 13:03:54;;;;;;;19.30;10.18;;;;;;;;;;4917466;29;20489;-79
2022/11/06 13:06:31;;;;;;;19.65;9.52;;;;;;;;;;4918241;29;20103;-76
2022/11/06 13:09:27;;;;;;;18.83;8.98;;;;;;;;;;4916843;29;20044;-78
2022/11/06 13:11:58;;;;;;;21.35;9.45;;;;;;;;;;4908937;29;20068;-81
2022/11/06 13:14:30;;;;;;;20.58;9.50;;;;;;;;;;4915391;29;20047;-79
2022/11/06 13:17:00;;;;;;;26.00;10.85;;;;;;;;;;4916706;29;20055;-77
2022/11/06 13:19:31;;;;;;;24.63;12.70;;;;;;;;;;4917427;29;20036;-81
2022/11/06 13:22:11;;;;;;;17.17;9.13;;;;;;;;;;4916589;29;20044;-81
2022/11/06 13:24:38;;;;;;;18.52;9.20;;;;;;;;;;4916969;29;20040;-80
2022/11/06 13:27:12;;;;;;;17.02;9.80;;;;;;;;;;4917004;29;20040;-79
2022/11/06 13:29:40;;;;;;;17.95;10.00;;;;;;;;;;4917147;29;20064;-82
2022/11/06 13:32:13;;;;;;;18.33;10.52;;;;;;;;;;4917028;29;20051;-79
2022/11/06 13:34:42;;;;;;;20.35;11.18;;;;;;;;;;4916899;29;20044;-76
2022/11/06 13:37:19;;;;;;;18.70;10.25;;;;;;;;;;4916728;29;20119;-79
2022/11/06 13:39:49;;;;;;;20.17;10.25;;;;;;;;;;4915648;29;20040;-79
2022/11/06 13:42:22;;;;;;;21.83;11.50;;;;;;;;;;4922584;29;20072;-79
2022/11/06 13:44:50;;;;;;;19.65;11.15;;;;;;;;;;4931953;29;20048;-79
2022/11/06 13:47:21;;;;;;;20.38;10.38;;;;;;;;;;4931265;29;20079;-78
2022/11/06 13:49:51;;;;;;;21.83;10.55;;;;;;;;;;4931736;29;20044;-78
2022/11/06 13:52:34;;;;;;;26.05;10.80;;;;;;;;;;4923170;29;20040;-78
2022/11/06 13:55:05;;;;;;;18.58;9.98;;;;;;;;;;4911246;29;20052;-78
2022/11/06 13:57:35;;;;;;;21.60;11.07;;;;;;;;;;4912122;29;20502;-79
2022/11/06 14:00:03;;;;;;;19.92;10.13;;;;;;;;;;4915397;29;20051;-75
2022/11/06 14:02:40;;;;;;;18.35;10.25;;;;;;;;;;4919015;29;20064;-78
2022/11/06 14:05:27;;;;;;;18.48;10.48;;;;;;;;;;4924228;29;20503;-76
2022/11/06 14:07:55;;;;;;;17.30;9.95;;;;;;;;;;4924451;29;20078;-75
2022/11/06 14:10:24;;;;;;;21.95;10.43;;;;;;;;;;4921325;29;20079;-77
2022/11/06 14:12:52;;;;;;;26.55;11.75;;;;;;;;;;4914813;29;20067;-75
2022/11/06 14:15:19;;;;;;;22.75;10.93;;;;;;;;;;4916015;29;20186;-82
2022/11/06 14:17:54;;;;;;;18.25;9.98;;;;;;;;;;4916118;29;20046;-76
2022/11/06 14:20:29;;;;;;;22.02;10.80;;;;;;;;;;4916099;29;20507;-77
2022/11/06 14:23:17;;;;;;;23.00;10.98;;;;;;;;;;4901562;29;20041;-78
2022/11/06 14:25:45;;;;;;;25.75;10.88;;;;;;;;;;4909879;29;20083;-77
2022/11/06 14:28:27;;;;;;;18.08;11.25;;;;;;;;;;4916137;29;20506;-74
2022/11/06 14:30:55;;;;;;;18.80;10.15;;;;;;;;;;4915698;29;20046;-79
2022/11/06 14:33:48;;;;;;;20.08;10.35;;;;;;;;;;4915644;29;20724;-77
2022/11/06 14:36:24;;;;;;;18.83;11.02;;;;;;;;;;4907246;29;20036;-76
2022/11/06 14:38:53;;;;;;;18.55;9.90;;;;;;;;;;4899925;29;20055;-78
2022/11/06 14:41:35;;;;;;;27.33;11.65;;;;;;;;;;4897034;29;20377;-80
2022/11/06 14:44:05;;;;;;;32.38;13.63;;;;;;;;;;4906554;29;20603;-79
2022/11/06 14:46:33;;;;;;;16.85;10.65;;;;;;;;;;4910597;29;20046;-82
2022/11/06 14:49:09;;;;;;;17.63;9.88;;;;;;;;;;4903040;29;20181;-81